createdAt,value
2018-10-21T00:02:54.590Z,102516.62
2018-10-21T00:05:59.025Z,102515.83
2018-10-21T00:09:03.320Z,102506.89
2018-10-21T00:12:07.637Z,102499.76
2018-10-21T00:15:11.693Z,102499.81
2018-10-21T00:18:15.955Z,102500.78
2018-10-21T00:21:20.186Z,102498.28
2018-10-21T00:24:24.453Z,102500.70
2018-10-21T00:27:28.805Z,102501.64
2018-10-21T00:30:33.140Z,102499.05
2018-10-21T00:33:37.437Z,102492.55
2018-10-21T00:36:41.664Z,102502.00
2018-10-21T00:39:47.419Z,102507.84
2018-10-21T00:42:51.963Z,102508.25
2018-10-21T00:45:56.279Z,102506.86
2018-10-21T00:49:00.573Z,102511.02
2018-10-21T00:52:04.934Z,102508.19
2018-10-21T00:55:11.543Z,102514.77
2018-10-21T00:58:15.806Z,102511.78
2018-10-21T01:01:20.159Z,102516.27
2018-10-21T01:04:24.488Z,102513.84
2018-10-21T01:07:28.813Z,102503.05
2018-10-21T01:10:33.699Z,102495.36
2018-10-21T01:13:38.009Z,102491.00
2018-10-21T01:16:42.343Z,102489.61
2018-10-21T01:19:46.456Z,102481.83
2018-10-21T01:22:50.793Z,102487.48
2018-10-21T01:25:55.104Z,102481.97
2018-10-21T01:28:59.444Z,102478.08
2018-10-21T01:32:06.541Z,102481.00
2018-10-21T01:35:11.369Z,102478.97
2018-10-21T01:38:15.726Z,102475.16
2018-10-21T01:41:19.962Z,102471.59
2018-10-21T01:44:25.335Z,102470.06
2018-10-21T01:47:29.492Z,102462.07
2018-10-21T01:50:33.731Z,102466.13
2018-10-21T01:53:38.098Z,102460.29
2018-10-21T01:56:43.338Z,102461.91
2018-10-21T01:59:47.649Z,102456.98
2018-10-21T02:02:52.036Z,102463.88
2018-10-21T02:05:56.288Z,102456.74
2018-10-21T02:09:00.639Z,102449.05
2018-10-21T02:12:04.933Z,102449.94
2018-10-21T02:15:14.579Z,102451.91
2018-10-21T02:18:18.745Z,102455.55
2018-10-21T02:21:23.034Z,102454.16
2018-10-21T02:24:27.348Z,102453.22
2018-10-21T02:27:33.353Z,102454.42
2018-10-21T02:30:38.774Z,102449.14
2018-10-21T02:33:43.142Z,102442.20
2018-10-21T02:36:47.291Z,102453.14
2018-10-21T02:39:52.691Z,102446.56
2018-10-21T02:42:56.791Z,102448.75
2018-10-21T02:46:01.079Z,102452.23
2018-10-21T02:49:05.986Z,102456.11
2018-10-21T02:52:11.407Z,102457.56
2018-10-21T02:55:15.790Z,102461.31
2018-10-21T02:58:19.922Z,102462.28
2018-10-21T03:01:24.177Z,102464.47
2018-10-21T03:04:28.425Z,102459.12
2018-10-21T03:07:35.551Z,102463.58
2018-10-21T03:10:39.909Z,102455.55
2018-10-21T03:13:46.313Z,102459.69
2018-10-21T03:16:50.475Z,102456.84
2018-10-21T03:19:55.171Z,102459.77
2018-10-21T03:22:59.509Z,102445.77
2018-10-21T03:26:04.073Z,102447.67
2018-10-21T03:29:08.351Z,102443.48
2018-10-21T03:32:12.854Z,102444.86
2018-10-21T03:35:16.904Z,102438.78
2018-10-21T03:38:21.223Z,102435.24
2018-10-21T03:41:25.520Z,102427.45
2018-10-21T03:44:30.866Z,102433.45
2018-10-21T03:47:35.156Z,102430.69
2018-10-21T03:50:40.935Z,102434.41
2018-10-21T03:53:45.323Z,102431.64
2018-10-21T03:56:49.590Z,102432.59
2018-10-21T03:59:53.701Z,102438.90
2018-10-21T04:02:57.935Z,102432.17
2018-10-21T04:06:03.699Z,102434.45
2018-10-21T04:09:08.811Z,102431.85
2018-10-21T04:12:12.943Z,102424.45
2018-10-21T04:15:17.227Z,102427.61
2018-10-21T04:18:21.520Z,102423.16
2018-10-21T04:21:27.150Z,102423.45
2018-10-21T04:24:31.595Z,102432.35
2018-10-21T04:27:35.951Z,102433.47
2018-10-21T04:30:41.362Z,102425.59
2018-10-21T04:33:46.393Z,102429.87
2018-10-21T04:36:54.081Z,102429.27
2018-10-21T04:40:16.803Z,102428.67
2018-10-21T04:43:21.086Z,102422.41
2018-10-21T04:46:25.464Z,102420.03
2018-10-21T04:49:29.724Z,102410.27
2018-10-21T04:52:35.758Z,102417.45
2018-10-21T04:55:40.064Z,102411.17
2018-10-21T04:58:44.383Z,102402.23
2018-10-21T05:01:48.650Z,102409.03
2018-10-21T05:04:52.931Z,102404.94
2018-10-21T05:07:57.177Z,102409.09
2018-10-21T05:11:01.437Z,102407.27
2018-10-21T05:14:06.199Z,102405.94
2018-10-21T05:17:10.838Z,102408.34
2018-10-21T05:20:16.653Z,102412.92
2018-10-21T05:23:20.969Z,102419.80
2018-10-21T05:26:25.222Z,102419.92
2018-10-21T05:29:30.633Z,102409.66
2018-10-21T05:32:35.470Z,102411.92
2018-10-21T05:35:39.721Z,102409.13
2018-10-21T05:38:45.537Z,102403.97
2018-10-21T05:41:49.858Z,102408.95
2018-10-21T05:44:54.270Z,102407.66
2018-10-21T05:47:58.443Z,102412.52
2018-10-21T05:51:02.789Z,102406.11
2018-10-21T05:54:09.081Z,102403.16
2018-10-21T05:57:13.445Z,102393.65
2018-10-21T06:00:19.145Z,102402.45
2018-10-21T06:03:23.492Z,102399.10
2018-10-21T06:06:27.843Z,102397.55
2018-10-21T06:09:32.434Z,102404.17
2018-10-21T06:12:36.751Z,102410.80
2018-10-21T06:15:41.394Z,102402.66
2018-10-21T06:18:46.233Z,102412.72
2018-10-21T06:21:50.531Z,102410.45
2018-10-21T06:24:54.891Z,102403.00
2018-10-21T06:27:59.731Z,102400.86
2018-10-21T06:31:04.179Z,102407.86
2018-10-21T06:34:09.831Z,102404.77
2018-10-21T06:37:14.069Z,102409.16
2018-10-21T06:40:18.235Z,102410.38
2018-10-21T06:43:22.547Z,102406.98
2018-10-21T06:46:26.649Z,102410.92
2018-10-21T06:49:30.794Z,102402.44
2018-10-21T06:52:34.990Z,102404.33
2018-10-21T06:55:41.605Z,102406.13
2018-10-21T06:58:45.968Z,102409.86
2018-10-21T07:01:50.303Z,102410.41
2018-10-21T07:04:54.751Z,102406.16
2018-10-21T07:07:59.520Z,102403.67
2018-10-21T07:11:04.271Z,102396.03
2018-10-21T07:14:08.800Z,102396.61
2018-10-21T07:17:13.078Z,102400.17
2018-10-21T07:20:17.438Z,102402.55
2018-10-21T07:23:21.577Z,102402.33
2018-10-21T07:26:26.026Z,102409.08
2018-10-21T07:29:30.374Z,102415.36
2018-10-21T07:32:35.952Z,102408.09
2018-10-21T07:35:40.093Z,102411.30
2018-10-21T07:38:44.480Z,102414.56
2018-10-21T07:41:50.258Z,102410.92
2018-10-21T07:44:54.564Z,102406.71
2018-10-21T07:47:58.943Z,102409.63
2018-10-21T07:51:03.226Z,102412.56
2018-10-21T07:54:07.595Z,102418.42
2018-10-21T07:57:11.934Z,102413.05
2018-10-21T08:00:17.719Z,102415.53
2018-10-21T08:03:21.822Z,102410.96
2018-10-21T08:06:38.066Z,102409.67
2018-10-21T08:09:43.500Z,102404.61
2018-10-21T08:12:48.539Z,102403.44
2018-10-21T08:15:52.965Z,102404.08
2018-10-21T08:18:57.313Z,102407.04
2018-10-21T08:22:02.375Z,102396.86
2018-10-21T08:25:06.798Z,102401.83
2018-10-21T08:28:10.915Z,102398.27
2018-10-21T08:31:15.268Z,102393.72
2018-10-21T08:34:19.412Z,102393.41
2018-10-21T08:37:23.754Z,102398.22
2018-10-21T08:40:29.350Z,102397.70
2018-10-21T08:43:34.204Z,102393.79
2018-10-21T08:46:38.514Z,102393.13
2018-10-21T08:49:44.982Z,102391.83
2018-10-21T08:52:49.249Z,102391.07
2018-10-21T08:55:53.452Z,102386.48
2018-10-21T08:58:58.339Z,102390.62
2018-10-21T09:02:02.654Z,102381.52
2018-10-21T09:05:09.626Z,102381.84
2018-10-21T09:08:14.150Z,102378.89
2018-10-21T09:11:18.522Z,102385.41
2018-10-21T09:14:23.129Z,102383.60
2018-10-21T09:17:27.448Z,102388.46
2018-10-21T09:20:31.792Z,102378.38
2018-10-21T09:23:36.137Z,102381.30
2018-10-21T09:26:40.917Z,102372.83
2018-10-21T09:29:45.180Z,102379.08
2018-10-21T09:32:49.570Z,102376.36
2018-10-21T09:35:53.882Z,102372.45
2018-10-21T09:38:58.183Z,102372.77
2018-10-21T09:42:02.397Z,102373.00
2018-10-21T09:45:07.595Z,102370.04
2018-10-21T09:48:11.714Z,102366.63
2018-10-21T09:51:16.002Z,102361.75
2018-10-21T09:54:20.098Z,102363.25
2018-10-21T09:57:24.382Z,102359.06
2018-10-21T10:00:34.029Z,102358.87
2018-10-21T10:03:38.456Z,102358.86
2018-10-21T10:06:42.484Z,102363.42
2018-10-21T10:09:46.557Z,102356.58
2018-10-21T10:12:50.647Z,102360.24
2018-10-21T10:15:56.355Z,102356.19
2018-10-21T10:19:00.902Z,102345.11
2018-10-21T10:22:05.384Z,102343.64
2018-10-21T10:25:10.695Z,102340.91
2018-10-21T10:28:15.114Z,102342.52
2018-10-21T10:31:19.451Z,102335.17
2018-10-21T10:34:23.629Z,102331.63
2018-10-21T10:37:28.513Z,102330.80
2018-10-21T10:40:32.785Z,102332.53
2018-10-21T10:43:37.050Z,102329.66
2018-10-21T10:46:41.159Z,102325.95
2018-10-21T10:49:47.081Z,102327.77
2018-10-21T10:52:51.395Z,102321.44
2018-10-21T10:55:55.743Z,102317.30
2018-10-21T10:59:00.057Z,102308.66
2018-10-21T11:02:04.498Z,102305.59
2018-10-21T11:05:09.766Z,102305.80
2018-10-21T11:08:14.097Z,102302.70
2018-10-21T11:11:18.282Z,102295.41
2018-10-21T11:14:22.687Z,102305.88
2018-10-21T11:17:27.104Z,102295.97
2018-10-21T11:20:31.403Z,102292.42
2018-10-21T11:23:35.724Z,102289.81
2018-10-21T11:26:40.083Z,102287.14
2018-10-21T11:29:46.284Z,102285.99
2018-10-21T11:32:50.646Z,102286.92
2018-10-21T11:35:54.993Z,102283.72
2018-10-21T11:38:59.292Z,102288.61
2018-10-21T11:42:03.715Z,102280.28
2018-10-21T11:45:08.432Z,102280.02
2018-10-21T11:48:12.713Z,102276.91
2018-10-21T11:51:17.072Z,102272.11
2018-10-21T11:54:21.505Z,102269.19
2018-10-21T11:57:25.927Z,102263.60
2018-10-21T12:00:30.351Z,102263.84
2018-10-21T12:03:34.475Z,102262.16
2018-10-21T12:06:38.927Z,102264.34
2018-10-21T12:09:43.361Z,102258.14
2018-10-21T12:12:48.733Z,102256.37
2018-10-21T12:15:52.875Z,102258.42
2018-10-21T12:18:57.215Z,102258.33
2018-10-21T12:22:01.525Z,102253.64
2018-10-21T12:25:06.623Z,102254.14
2018-10-21T12:28:10.987Z,102254.57
2018-10-21T12:31:15.330Z,102246.02
2018-10-21T12:34:19.692Z,102244.77
2018-10-21T12:37:26.509Z,102245.20
2018-10-21T12:40:30.899Z,102239.24
2018-10-21T12:43:35.333Z,102237.09
2018-10-21T12:46:40.219Z,102231.89
2018-10-21T12:49:44.558Z,102238.24
2018-10-21T12:52:48.918Z,102228.87
2018-10-21T12:55:53.769Z,102232.32
2018-10-21T12:58:58.060Z,102231.94
2018-10-21T13:02:02.410Z,102228.77
2018-10-21T13:05:07.070Z,102223.47
2018-10-21T13:08:11.454Z,102220.19
2018-10-21T13:11:15.738Z,102215.29
2018-10-21T13:14:20.076Z,102211.75
2018-10-21T13:17:24.411Z,102209.13
2018-10-21T13:20:28.704Z,102212.50
2018-10-21T13:23:33.035Z,102214.68
2018-10-21T13:26:37.460Z,102208.25
2018-10-21T13:29:41.786Z,102203.88
2018-10-21T13:32:47.350Z,102206.51
2018-10-21T13:35:51.675Z,102202.14
2018-10-21T13:38:56.054Z,102198.15
2018-10-21T13:42:00.380Z,102198.86
2018-10-21T13:45:04.750Z,102198.92
2018-10-21T13:48:09.096Z,102195.05
2018-10-21T13:51:13.439Z,102191.77
2018-10-21T13:54:17.593Z,102186.95
2018-10-21T13:57:21.852Z,102185.05
2018-10-21T14:00:26.253Z,102179.28
2018-10-21T14:03:30.550Z,102179.11
2018-10-21T14:06:34.836Z,102171.20
2018-10-21T14:09:39.418Z,102173.28
2018-10-21T14:12:43.796Z,102162.31
2018-10-21T14:15:48.164Z,102166.17
2018-10-21T14:18:52.626Z,102162.19
2018-10-21T14:21:56.945Z,102154.66
2018-10-21T14:25:01.149Z,102154.23
2018-10-21T14:28:05.679Z,102152.48
2018-10-21T14:31:10.485Z,102155.91
2018-10-21T14:34:14.851Z,102150.20
2018-10-21T14:37:19.549Z,102152.30
2018-10-21T14:40:23.877Z,102151.31
2018-10-21T14:43:28.209Z,102159.87
2018-10-21T14:46:32.653Z,102152.02
2018-10-21T14:49:36.973Z,102151.09
2018-10-21T14:52:41.272Z,102145.73
2018-10-21T14:55:45.563Z,102149.17
2018-10-21T14:58:49.633Z,102146.66
2018-10-21T15:01:53.961Z,102151.28
2018-10-21T15:04:58.261Z,102139.82
2018-10-21T15:08:02.648Z,102136.72
2018-10-21T15:11:07.103Z,102139.45
2018-10-21T15:14:12.068Z,102127.98
2018-10-21T15:17:16.461Z,102128.37
2018-10-21T15:20:20.825Z,102129.17
2018-10-21T15:23:25.950Z,102127.98
2018-10-21T15:26:30.262Z,102130.62
2018-10-21T15:29:36.001Z,102125.69
2018-10-21T15:32:40.991Z,102125.48
2018-10-21T15:35:45.348Z,102123.25
2018-10-21T15:38:50.163Z,102119.75
2018-10-21T15:41:55.753Z,102121.81
2018-10-21T15:45:00.133Z,102118.33
2018-10-21T15:48:04.324Z,102122.25
2018-10-21T15:51:08.704Z,102120.05
2018-10-21T15:54:13.598Z,102111.22
2018-10-21T15:57:17.950Z,102115.89
2018-10-21T16:00:22.250Z,102106.67
2018-10-21T16:03:26.548Z,102105.68
2018-10-21T16:06:30.865Z,102109.05
2018-10-21T16:09:35.377Z,102109.03
2018-10-21T16:12:41.628Z,102114.66
2018-10-21T16:15:45.760Z,102106.44
2018-10-21T16:18:50.041Z,102108.55
2018-10-21T16:21:54.944Z,102107.74
2018-10-21T16:24:59.302Z,102113.45
2018-10-21T16:28:04.564Z,102112.52
2018-10-21T16:31:10.181Z,102109.84
2018-10-21T16:34:17.375Z,102108.98
2018-10-21T16:37:26.616Z,102112.47
2018-10-21T16:40:33.155Z,102109.84
2018-10-21T16:43:39.476Z,102109.48
2018-10-21T16:46:45.299Z,102112.40
2018-10-21T16:49:51.423Z,102109.36
2018-10-21T16:52:57.321Z,102108.48
2018-10-21T16:56:02.931Z,102104.50
2018-10-21T16:59:10.047Z,102104.11
2018-10-21T17:02:15.208Z,102100.14
2018-10-21T17:05:20.722Z,102090.98
2018-10-21T17:08:26.239Z,102099.76
2018-10-21T17:11:33.176Z,102105.36
2018-10-21T17:14:39.102Z,102108.03
2018-10-21T17:17:44.906Z,102104.98
2018-10-21T17:20:49.863Z,102115.38
2018-10-21T17:23:55.075Z,102097.83
2018-10-21T17:27:00.257Z,102111.25
2018-10-21T17:30:07.140Z,102105.98
2018-10-21T17:33:12.026Z,102109.03
2018-10-21T17:36:17.620Z,102108.97
2018-10-21T17:39:22.646Z,102107.28
2018-10-21T17:42:28.684Z,102114.81
2018-10-21T17:45:33.977Z,102109.97
2018-10-21T17:48:38.513Z,102113.39
2018-10-21T17:51:43.655Z,102116.88
2018-10-21T17:54:48.179Z,102108.59
2018-10-21T17:57:52.811Z,102108.53
2018-10-21T18:00:57.498Z,102101.63
2018-10-21T18:04:02.239Z,102107.28
2018-10-21T18:07:08.045Z,102098.56
2018-10-21T18:10:12.959Z,102099.37
2018-10-21T18:13:17.703Z,102087.37
2018-10-21T18:16:22.193Z,102102.05
2018-10-21T18:19:27.211Z,102098.06
2018-10-21T18:22:32.435Z,102090.74
2018-10-21T18:25:36.767Z,102090.73
2018-10-21T18:28:41.263Z,102097.70
2018-10-21T18:31:47.104Z,102094.14
2018-10-21T18:34:51.891Z,102091.60
2018-10-21T18:37:56.288Z,102094.90
2018-10-21T18:41:00.999Z,102095.33
2018-10-21T18:44:06.157Z,102096.58
2018-10-21T18:47:10.760Z,102093.97
2018-10-21T18:50:15.988Z,102092.66
2018-10-21T18:53:20.262Z,102093.59
2018-10-21T18:56:24.513Z,102090.53
2018-10-21T18:59:28.976Z,102091.48
2018-10-21T19:02:33.396Z,102085.00
2018-10-21T19:05:38.686Z,102088.84
2018-10-21T19:08:43.733Z,102083.52
2018-10-21T19:11:48.024Z,102083.56
2018-10-21T19:14:52.318Z,102078.77
2018-10-21T19:17:57.445Z,102081.88
2018-10-21T19:21:02.021Z,102076.16
2018-10-21T19:24:06.613Z,102067.08
2018-10-21T19:27:11.040Z,102072.31
2018-10-21T19:30:15.815Z,102077.16
2018-10-21T19:33:20.016Z,102083.19
2018-10-21T19:36:24.375Z,102073.97
2018-10-21T19:39:29.840Z,102067.39
2018-10-21T19:42:34.215Z,102069.50
2018-10-21T19:45:39.593Z,102062.91
2018-10-21T19:48:44.015Z,102063.40
2018-10-21T19:51:49.005Z,102060.28
2018-10-21T19:54:54.407Z,102058.91
2018-10-21T19:57:58.925Z,102053.50
2018-10-21T20:01:03.049Z,102048.70
2018-10-21T20:04:07.555Z,102051.25
2018-10-21T20:07:11.746Z,102048.01
2018-10-21T20:10:16.988Z,102044.27
2018-10-21T20:13:21.099Z,102040.77
2018-10-21T20:16:25.455Z,102033.74
2018-10-21T20:19:29.766Z,102032.52
2018-10-21T20:22:35.322Z,102033.14
2018-10-21T20:25:39.686Z,102030.53
2018-10-21T20:28:44.091Z,102035.50
2018-10-21T20:31:48.459Z,102028.56
2018-10-21T20:34:52.860Z,102035.08
2018-10-21T20:37:57.413Z,102034.95
2018-10-21T20:41:01.693Z,102036.61
2018-10-21T20:44:06.124Z,102039.09
2018-10-21T20:47:10.322Z,102035.85
2018-10-21T20:50:16.359Z,102030.27
2018-10-21T20:53:20.641Z,102030.86
2018-10-21T20:56:24.930Z,102033.17
2018-10-21T20:59:29.942Z,102029.41
2018-10-21T21:02:34.305Z,102035.00
2018-10-21T21:05:38.740Z,102038.09
2018-10-21T21:08:42.858Z,102031.78
2018-10-21T21:11:47.263Z,102029.56
2018-10-21T21:14:51.424Z,102022.53
2018-10-21T21:17:55.809Z,102027.36
2018-10-21T21:21:00.344Z,102024.18
2018-10-21T21:24:06.333Z,102024.61
2018-10-21T21:27:10.636Z,102027.50
2018-10-21T21:30:17.526Z,102022.73
2018-10-21T21:33:21.816Z,102013.61
2018-10-21T21:36:26.133Z,102015.79
2018-10-21T21:39:30.428Z,102010.49
2018-10-21T21:42:35.297Z,102014.32
2018-10-21T21:45:39.561Z,102011.91
2018-10-21T21:48:43.737Z,102006.19
2018-10-21T21:51:48.766Z,102014.02
2018-10-21T21:54:53.042Z,102014.75
2018-10-21T21:57:57.453Z,102019.02
2018-10-21T22:01:01.799Z,102020.33
2018-10-21T22:04:06.734Z,102022.48
2018-10-21T22:07:10.894Z,102024.47
2018-10-21T22:10:15.713Z,102025.83
2018-10-21T22:13:20.385Z,102028.87
2018-10-21T22:16:24.636Z,102023.59
2018-10-21T22:19:28.909Z,102026.20
2018-10-21T22:22:33.165Z,102017.92
2018-10-21T22:25:38.028Z,102013.24
2018-10-21T22:28:42.441Z,102012.42
2018-10-21T22:31:48.558Z,102005.62
2018-10-21T22:34:52.941Z,102006.92
2018-10-21T22:37:57.294Z,102003.46
2018-10-21T22:41:01.412Z,102004.77
2018-10-21T22:44:06.034Z,102003.46
2018-10-21T22:47:10.334Z,102003.09
2018-10-21T22:50:14.745Z,102013.18
2018-10-21T22:53:19.269Z,102012.02
2018-10-21T22:56:23.426Z,102005.98
2018-10-21T22:59:27.870Z,102007.79
2018-10-21T23:02:32.352Z,102004.89
2018-10-21T23:05:36.682Z,102002.38
2018-10-21T23:08:40.987Z,102013.75
2018-10-21T23:11:45.489Z,102009.53
2018-10-21T23:14:49.836Z,102004.76
2018-10-21T23:17:54.186Z,102009.25
2018-10-21T23:21:00.036Z,102008.38
2018-10-21T23:24:05.208Z,102003.22
2018-10-21T23:27:10.253Z,102005.42
2018-10-21T23:30:14.640Z,102003.29
2018-10-21T23:33:19.207Z,102002.92
2018-10-21T23:36:24.105Z,102004.22
2018-10-21T23:39:29.051Z,102008.59
2018-10-21T23:42:33.960Z,102009.98
2018-10-21T23:45:38.274Z,102007.77
2018-10-21T23:48:43.648Z,102014.91
2018-10-21T23:51:48.624Z,102016.53
2018-10-21T23:54:52.782Z,102016.79
2018-10-21T23:57:57.332Z,102024.62
